createdAt,value
2019-03-18T00:01:19.861Z,6.53
2019-03-18T00:06:25.088Z,6.05
2019-03-18T00:11:30.291Z,10.03
2019-03-18T00:16:37.095Z,2.22
2019-03-18T00:21:42.321Z,4.50
2019-03-18T00:26:48.772Z,6.80
2019-03-18T00:31:54.307Z,3.70
2019-03-18T00:36:59.651Z,2.75
2019-03-18T00:42:05.518Z,4.03
2019-03-18T00:47:10.748Z,3.93
2019-03-18T00:52:16.349Z,4.55
2019-03-18T00:57:21.552Z,2.60
2019-03-18T01:02:27.512Z,5.70
2019-03-18T01:07:32.710Z,6.05
2019-03-18T01:12:37.980Z,3.80
2019-03-18T01:17:43.206Z,5.25
2019-03-18T01:22:49.595Z,3.93
2019-03-18T01:27:54.809Z,7.55
2019-03-18T01:33:00.065Z,4.20
2019-03-18T01:38:06.598Z,3.85
2019-03-18T01:43:11.970Z,4.67
2019-03-18T01:48:17.242Z,4.65
2019-03-18T01:53:22.570Z,5.23
2019-03-18T01:58:27.949Z,4.47
2019-03-18T02:03:33.142Z,3.98
2019-03-18T02:08:38.541Z,3.67
2019-03-18T02:13:43.981Z,5.33
2019-03-18T02:18:49.222Z,5.85
2019-03-18T02:23:54.471Z,5.33
2019-03-18T02:28:59.676Z,6.85
2019-03-18T02:34:04.922Z,5.60
2019-03-18T02:39:10.192Z,5.40
2019-03-18T02:44:15.515Z,5.90
2019-03-18T02:49:20.729Z,5.07
2019-03-18T02:54:30.238Z,5.67
2019-03-18T02:59:35.809Z,4.80
2019-03-18T03:04:42.201Z,7.73
2019-03-18T03:09:47.520Z,4.80
2019-03-18T03:14:52.717Z,5.40
2019-03-18T03:19:57.962Z,5.17
2019-03-18T03:25:04.645Z,6.05
2019-03-18T03:30:10.153Z,4.85
2019-03-18T03:35:16.125Z,6.17
2019-03-18T03:40:22.425Z,6.67
2019-03-18T03:45:27.749Z,5.62
2019-03-18T03:50:33.332Z,8.25
2019-03-18T03:55:39.237Z,6.28
2019-03-18T04:00:45.151Z,5.92
2019-03-18T04:05:50.644Z,7.15
2019-03-18T04:10:55.832Z,6.03
2019-03-18T04:16:03.711Z,5.80
2019-03-18T04:21:08.951Z,7.15
2019-03-18T04:26:14.677Z,6.28
2019-03-18T04:31:22.326Z,6.27
2019-03-18T04:36:27.582Z,7.13
2019-03-18T04:41:35.441Z,6.03
2019-03-18T04:46:41.083Z,7.90
2019-03-18T04:51:46.436Z,5.60
2019-03-18T04:56:51.650Z,7.70
2019-03-18T05:01:57.083Z,5.45
2019-03-18T05:07:02.367Z,6.50
2019-03-18T05:12:07.729Z,7.15
2019-03-18T05:17:25.880Z,4.93
2019-03-18T05:22:20.407Z,5.25
2019-03-18T05:27:25.779Z,7.25
2019-03-18T05:32:30.968Z,8.00
2019-03-18T05:37:36.292Z,4.55
2019-03-18T05:42:41.621Z,6.97
2019-03-18T05:47:47.989Z,7.17
2019-03-18T05:52:53.291Z,5.40
2019-03-18T05:57:58.658Z,5.67
2019-03-18T06:03:04.286Z,4.47
2019-03-18T06:08:11.615Z,5.67
2019-03-18T06:13:16.876Z,4.53
2019-03-18T06:18:23.115Z,5.47
2019-03-18T06:23:28.314Z,5.12
2019-03-18T06:28:33.584Z,4.55
2019-03-18T06:33:38.928Z,5.35
2019-03-18T06:38:44.252Z,5.25
2019-03-18T06:43:49.452Z,5.50
2019-03-18T06:48:54.806Z,4.85
2019-03-18T06:54:00.360Z,5.03
2019-03-18T06:59:05.663Z,5.47
2019-03-18T07:04:11.382Z,7.10
2019-03-18T07:09:16.653Z,5.47
2019-03-18T07:14:22.022Z,5.97
2019-03-18T07:19:28.431Z,6.13
2019-03-18T07:24:34.990Z,6.42
2019-03-18T07:29:40.221Z,6.37
2019-03-18T07:34:46.501Z,6.87
2019-03-18T07:39:51.835Z,4.30
2019-03-18T07:44:57.310Z,5.97
2019-03-18T07:50:02.693Z,6.80
2019-03-18T07:55:09.507Z,9.30
2019-03-18T08:00:15.272Z,10.17
2019-03-18T08:05:20.843Z,8.55
2019-03-18T08:10:27.263Z,9.30
2019-03-18T08:15:32.938Z,8.53
2019-03-18T08:20:40.924Z,9.63
2019-03-18T08:25:46.191Z,8.97
2019-03-18T08:30:51.664Z,6.67
2019-03-18T08:35:56.884Z,4.78
2019-03-18T08:41:02.085Z,4.72
2019-03-18T08:46:07.328Z,4.13
2019-03-18T08:51:12.550Z,5.25
2019-03-18T08:56:17.881Z,6.08
2019-03-18T09:01:23.158Z,5.72
2019-03-18T09:06:30.290Z,5.75
2019-03-18T09:11:35.356Z,5.97
2019-03-18T09:16:40.634Z,7.28
2019-03-18T09:21:45.841Z,7.95
2019-03-18T09:27:01.903Z,8.17
2019-03-18T09:31:57.983Z,28.47
2019-03-18T09:37:03.200Z,8.33
2019-03-18T09:42:08.493Z,7.43
2019-03-18T09:47:13.728Z,8.45
2019-03-18T09:52:19.015Z,10.20
2019-03-18T09:57:26.435Z,7.10
2019-03-18T10:02:31.236Z,10.03
2019-03-18T10:07:36.443Z,9.08
2019-03-18T10:12:41.837Z,10.03
2019-03-18T10:17:47.163Z,7.37
2019-03-18T10:22:52.802Z,5.25
2019-03-18T10:27:58.133Z,5.60
2019-03-18T10:33:03.359Z,7.45
2019-03-18T10:38:08.798Z,7.47
2019-03-18T10:43:14.035Z,8.40
2019-03-18T10:48:19.347Z,22.22
2019-03-18T10:53:24.621Z,9.95
2019-03-18T10:58:29.960Z,6.63
2019-03-18T11:03:35.255Z,5.50
2019-03-18T11:08:40.563Z,7.83
2019-03-18T11:13:45.797Z,6.47
2019-03-18T11:18:51.201Z,11.77
2019-03-18T11:23:56.414Z,6.65
2019-03-18T11:29:01.617Z,5.70
2019-03-18T11:34:06.955Z,4.20
2019-03-18T11:39:12.266Z,4.83
2019-03-18T11:44:17.478Z,3.08
2019-03-18T11:49:23.679Z,4.57
2019-03-18T11:54:29.100Z,3.95
2019-03-18T11:59:34.381Z,6.83
2019-03-18T12:04:39.678Z,3.83
2019-03-18T12:09:45.208Z,6.67
2019-03-18T12:14:50.536Z,4.10
2019-03-18T12:19:55.758Z,6.53
2019-03-18T12:25:01.048Z,6.05
2019-03-18T12:30:09.209Z,7.08
2019-03-18T12:35:14.454Z,4.27
2019-03-18T12:40:19.671Z,5.37
2019-03-18T12:45:25.961Z,6.03
2019-03-18T12:50:49.121Z,7.58
2019-03-18T12:55:39.162Z,6.03
2019-03-18T13:00:44.404Z,6.90
2019-03-18T13:05:50.101Z,6.03
2019-03-18T13:10:55.340Z,5.70
2019-03-18T13:16:00.610Z,7.22
2019-03-18T13:21:08.071Z,7.08
2019-03-18T13:26:13.739Z,6.78
2019-03-18T13:31:19.049Z,5.67
2019-03-18T13:36:25.601Z,6.22
2019-03-18T13:41:30.914Z,9.23
2019-03-18T13:52:47.392Z,4.85
2019-03-18T13:57:52.714Z,5.58
2019-03-18T14:02:57.910Z,5.20
2019-03-18T14:08:03.515Z,6.55
2019-03-18T14:13:09.718Z,4.20
2019-03-18T14:18:15.018Z,5.45
2019-03-18T14:23:20.786Z,4.67
2019-03-18T14:28:26.047Z,5.37
2019-03-18T14:33:31.276Z,6.30
2019-03-18T14:38:38.392Z,4.87
2019-03-18T14:43:46.454Z,6.28
2019-03-18T14:48:50.534Z,5.17
2019-03-18T14:53:55.747Z,6.33
2019-03-18T14:59:01.123Z,5.35
2019-03-18T15:04:06.729Z,5.95
2019-03-18T15:09:12.193Z,4.80
2019-03-18T15:14:17.580Z,4.28
2019-03-18T15:19:22.757Z,7.47
2019-03-18T15:24:32.551Z,5.00
2019-03-18T15:29:38.397Z,13.25
2019-03-18T15:34:44.879Z,6.93
2019-03-18T15:39:50.114Z,10.75
2019-03-18T15:44:55.381Z,5.20
2019-03-18T15:50:00.637Z,4.93
2019-03-18T15:55:06.080Z,5.58
2019-03-18T16:00:13.668Z,6.95
2019-03-18T16:05:18.991Z,5.25
2019-03-18T16:10:24.704Z,8.95
2019-03-18T16:15:30.473Z,6.10
2019-03-18T16:20:36.021Z,6.37
2019-03-18T16:25:41.396Z,5.83
2019-03-18T16:30:46.675Z,6.67
2019-03-18T16:35:52.062Z,6.27
2019-03-18T16:40:57.252Z,6.70
2019-03-18T16:46:02.463Z,5.75
2019-03-18T16:51:07.651Z,6.53
2019-03-18T16:56:12.859Z,6.30
2019-03-18T17:01:18.064Z,7.47
2019-03-18T17:06:23.537Z,8.63
2019-03-18T17:11:30.668Z,10.95
2019-03-18T17:16:35.902Z,6.42
2019-03-18T17:21:41.104Z,5.43
2019-03-18T17:26:46.837Z,5.30
2019-03-18T17:31:52.240Z,5.90
2019-03-18T17:36:57.774Z,7.03
2019-03-18T17:42:03.013Z,7.35
2019-03-18T17:47:08.304Z,6.87
2019-03-18T17:52:14.264Z,5.80
2019-03-18T17:57:19.516Z,8.25
2019-03-18T18:02:25.177Z,5.97
2019-03-18T18:07:30.464Z,7.58
2019-03-18T18:12:36.510Z,6.75
2019-03-18T18:17:41.931Z,7.92
2019-03-18T18:22:47.318Z,14.95
2019-03-18T18:27:52.624Z,18.03
2019-03-18T18:32:57.898Z,24.05
2019-03-18T18:38:03.216Z,20.23
2019-03-18T18:43:08.624Z,30.10
2019-03-18T18:48:13.826Z,52.88
2019-03-18T18:53:26.205Z,35.68
2019-03-18T18:58:29.841Z,22.25
2019-03-18T19:03:35.110Z,19.65
2019-03-18T19:08:41.074Z,17.55
2019-03-18T19:13:46.686Z,22.57
2019-03-18T19:18:53.032Z,18.63
2019-03-18T19:23:58.356Z,18.27
2019-03-18T19:29:03.562Z,15.03
2019-03-18T19:34:08.890Z,14.13
2019-03-18T19:39:14.914Z,27.80
2019-03-18T19:44:20.785Z,19.32
2019-03-18T19:49:26.233Z,21.90
2019-03-18T19:54:31.638Z,37.98
2019-03-18T19:59:37.022Z,35.17
2019-03-18T20:04:42.428Z,31.40
2019-03-18T20:09:47.840Z,34.40
2019-03-18T20:14:53.240Z,49.18
2019-03-18T20:19:59.614Z,51.70
2019-03-18T20:25:06.826Z,47.53
2019-03-18T20:30:14.033Z,30.95
2019-03-18T20:35:19.394Z,21.52
2019-03-18T20:40:25.176Z,13.53
2019-03-18T20:45:30.788Z,31.17
2019-03-18T20:50:36.454Z,17.10
2019-03-18T20:55:42.292Z,20.13
2019-03-18T21:00:47.568Z,28.80
2019-03-18T21:05:53.001Z,28.67
2019-03-18T21:10:58.419Z,43.08
2019-03-18T21:16:04.750Z,26.52
2019-03-18T21:21:10.398Z,26.75
2019-03-18T21:26:15.805Z,35.75
2019-03-18T21:31:21.180Z,29.60
2019-03-18T21:36:37.476Z,16.90
2019-03-18T21:41:34.095Z,19.95
2019-03-18T21:46:39.961Z,22.20
2019-03-18T21:51:45.710Z,26.57
2019-03-18T21:56:51.402Z,25.48
2019-03-18T22:01:57.575Z,30.00
2019-03-18T22:07:02.969Z,27.80
2019-03-18T22:12:08.266Z,17.50
2019-03-18T22:17:13.618Z,22.58
2019-03-18T22:22:18.827Z,25.45
2019-03-18T22:27:24.498Z,30.10
2019-03-18T22:32:29.698Z,27.00
2019-03-18T22:37:38.161Z,23.70
2019-03-18T22:42:43.755Z,21.60
2019-03-18T22:47:49.467Z,20.43
2019-03-18T22:52:54.890Z,20.83
2019-03-18T22:58:01.297Z,19.20
2019-03-18T23:03:06.852Z,17.95
2019-03-18T23:08:12.150Z,21.05
2019-03-18T23:13:17.499Z,17.35
2019-03-18T23:18:22.706Z,26.75
2019-03-18T23:23:28.031Z,29.20
2019-03-18T23:28:33.330Z,30.57
2019-03-18T23:33:38.916Z,18.80
2019-03-18T23:38:44.300Z,16.52
2019-03-18T23:43:49.501Z,19.35
2019-03-18T23:48:54.859Z,15.70
2019-03-18T23:54:00.154Z,11.78
2019-03-18T23:59:05.470Z,15.83
